createdAt,value
2022-12-06T00:01:18.352Z,100978.47
2022-12-06T00:03:48.206Z,100980.81
2022-12-06T00:06:18.652Z,100981.09
2022-12-06T00:08:47.723Z,100980.81
2022-12-06T00:11:26.780Z,100977.06
2022-12-06T00:13:56.351Z,100977.97
2022-12-06T00:16:24.593Z,100971.19
2022-12-06T00:18:52.632Z,100970.41
2022-12-06T00:21:28.805Z,100977.50
2022-12-06T00:23:58.840Z,100962.19
2022-12-06T00:26:26.481Z,100963.09
2022-12-06T00:28:55.797Z,100972.63
2022-12-06T00:31:25.727Z,100975.69
2022-12-06T00:33:53.950Z,100974.31
2022-12-06T00:36:29.885Z,100967.06
2022-12-06T00:39:00.837Z,100970.38
2022-12-06T00:41:28.225Z,100965.09
2022-12-06T00:43:56.063Z,100966.25
2022-12-06T00:46:28.796Z,100965.75
2022-12-06T00:48:58.084Z,100959.38
2022-12-06T00:51:28.285Z,100959.81
2022-12-06T00:53:55.771Z,100962.38
2022-12-06T00:56:23.577Z,100954.75
2022-12-06T00:58:51.143Z,100954.25
2022-12-06T01:01:22.090Z,100953.88
2022-12-06T01:03:52.192Z,100950.56
2022-12-06T01:06:23.140Z,100954.00
2022-12-06T01:08:50.697Z,100962.47
2022-12-06T01:11:18.285Z,100950.84
2022-12-06T01:13:45.650Z,100947.41
2022-12-06T01:16:16.693Z,100953.09
2022-12-06T01:18:45.498Z,100951.53
2022-12-06T01:21:15.570Z,100951.84
2022-12-06T01:23:46.921Z,100963.75
2022-12-06T01:26:26.095Z,100969.97
2022-12-06T01:28:53.881Z,100966.09
2022-12-06T01:31:21.713Z,100956.75
2022-12-06T01:33:49.228Z,100950.50
2022-12-06T01:36:23.092Z,100958.56
2022-12-06T01:38:56.302Z,100963.16
2022-12-06T01:41:25.841Z,100956.63
2022-12-06T01:43:54.129Z,100962.91
2022-12-06T01:46:42.019Z,100958.16
2022-12-06T01:49:12.412Z,100958.97
2022-12-06T01:52:01.633Z,100964.19
2022-12-06T01:54:29.740Z,100957.25
2022-12-06T01:56:58.124Z,100952.19
2022-12-06T01:59:26.876Z,100957.75
2022-12-06T02:01:55.039Z,100959.38
2022-12-06T02:04:23.428Z,100949.06
2022-12-06T02:06:52.853Z,100951.22
2022-12-06T02:09:21.661Z,100953.31
2022-12-06T02:11:49.187Z,100947.53
2022-12-06T02:14:21.518Z,100950.78
2022-12-06T02:17:03.764Z,100952.09
2022-12-06T02:20:00.082Z,100944.22
2022-12-06T02:22:46.349Z,100941.94
2022-12-06T02:25:31.587Z,100942.88
2022-12-06T02:28:41.353Z,100945.16
2022-12-06T02:31:47.185Z,100940.31
2022-12-06T02:34:30.438Z,100942.72
2022-12-06T02:37:14.969Z,100938.31
2022-12-06T02:39:54.359Z,100949.56
2022-12-06T02:42:44.695Z,100942.81
2022-12-06T02:45:20.989Z,100942.31
2022-12-06T02:47:51.703Z,100931.00
2022-12-06T02:50:25.313Z,100934.50
2022-12-06T02:52:54.462Z,100932.09
2022-12-06T02:55:23.787Z,100931.91
2022-12-06T02:57:53.177Z,100933.03
2022-12-06T03:00:29.782Z,100934.69
2022-12-06T03:03:20.095Z,100932.72
2022-12-06T03:06:03.724Z,100938.00
2022-12-06T03:09:09.896Z,100932.84
2022-12-06T03:12:01.576Z,100936.97
2022-12-06T03:14:38.564Z,100925.59
2022-12-06T03:17:21.099Z,100929.69
2022-12-06T03:20:04.338Z,100926.34
2022-12-06T03:22:40.232Z,100920.97
2022-12-06T03:25:26.561Z,100920.38
2022-12-06T03:27:56.910Z,100917.66
2022-12-06T03:30:24.498Z,100918.88
2022-12-06T03:32:51.872Z,100915.59
2022-12-06T03:35:25.881Z,100909.97
2022-12-06T03:38:03.449Z,100914.78
2022-12-06T03:40:35.149Z,100908.81
2022-12-06T03:43:02.860Z,100914.66
2022-12-06T03:45:50.001Z,100911.50
2022-12-06T03:48:22.952Z,100917.09
2022-12-06T03:50:58.914Z,100915.59
2022-12-06T03:53:26.828Z,100915.59
2022-12-06T03:55:54.229Z,100910.19
2022-12-06T03:58:21.648Z,100908.00
2022-12-06T04:00:49.004Z,100905.88
2022-12-06T04:03:16.599Z,100909.47
2022-12-06T04:05:43.982Z,100910.59
2022-12-06T04:08:11.420Z,100908.56
2022-12-06T04:10:38.846Z,100918.69
2022-12-06T04:13:06.303Z,100917.22
2022-12-06T04:15:39.170Z,100907.28
2022-12-06T04:18:19.098Z,100913.38
2022-12-06T04:21:11.093Z,100907.19
2022-12-06T04:23:40.401Z,100908.78
2022-12-06T04:26:11.921Z,100918.78
2022-12-06T04:28:58.102Z,100905.13
2022-12-06T04:31:45.216Z,100908.03
2022-12-06T04:34:34.829Z,100908.97
2022-12-06T04:37:21.881Z,100901.88
2022-12-06T04:39:50.026Z,100904.31
2022-12-06T04:42:36.561Z,100897.53
2022-12-06T04:45:05.527Z,100902.16
2022-12-06T04:47:33.080Z,100903.25
2022-12-06T04:50:00.713Z,100900.94
2022-12-06T04:52:34.077Z,100910.72
2022-12-06T04:55:04.511Z,100917.56
2022-12-06T04:57:32.068Z,100914.56
2022-12-06T04:59:59.733Z,100907.66
2022-12-06T05:02:27.412Z,100904.47
2022-12-06T05:04:54.786Z,100904.00
2022-12-06T05:07:22.285Z,100903.41
2022-12-06T05:09:49.693Z,100903.66
2022-12-06T05:12:17.017Z,100909.56
2022-12-06T05:14:44.367Z,100905.00
2022-12-06T05:17:11.831Z,100905.03
2022-12-06T05:19:39.170Z,100909.72
2022-12-06T05:22:07.141Z,100909.72
2022-12-06T05:24:34.620Z,100913.44
2022-12-06T05:27:01.925Z,100919.97
2022-12-06T05:29:29.405Z,100920.41
2022-12-06T05:31:56.851Z,100920.75
2022-12-06T05:34:24.989Z,100924.41
2022-12-06T05:36:52.398Z,100919.66
2022-12-06T05:39:19.784Z,100921.28
2022-12-06T05:41:47.143Z,100918.66
2022-12-06T05:44:14.485Z,100920.47
2022-12-06T05:46:41.818Z,100919.34
2022-12-06T05:49:09.187Z,100909.97
2022-12-06T05:51:36.533Z,100914.63
2022-12-06T05:54:06.663Z,100923.59
2022-12-06T05:56:34.281Z,100930.31
2022-12-06T05:59:01.748Z,100925.25
2022-12-06T06:01:29.267Z,100917.19
2022-12-06T06:03:56.644Z,100926.44
2022-12-06T06:06:24.073Z,100928.88
2022-12-06T06:08:52.631Z,100923.78
2022-12-06T06:11:20.002Z,100935.66
2022-12-06T06:13:47.349Z,100934.84
2022-12-06T06:16:15.112Z,100942.41
2022-12-06T06:18:42.849Z,100934.06
2022-12-06T06:21:10.287Z,100927.59
2022-12-06T06:23:37.611Z,100929.16
2022-12-06T06:26:09.255Z,100922.44
2022-12-06T06:28:36.655Z,100931.91
2022-12-06T06:31:08.162Z,100927.63
2022-12-06T06:33:36.224Z,100929.38
2022-12-06T06:36:06.921Z,100938.00
2022-12-06T06:38:34.228Z,100937.56
2022-12-06T06:41:03.282Z,100942.59
2022-12-06T06:43:31.281Z,100950.25
2022-12-06T06:46:01.726Z,100958.41
2022-12-06T06:48:32.041Z,100966.00
2022-12-06T06:51:10.643Z,100961.13
2022-12-06T06:53:38.935Z,100964.47
2022-12-06T06:56:07.051Z,100969.25
2022-12-06T06:58:34.508Z,100978.44
2022-12-06T07:01:04.739Z,100974.19
2022-12-06T07:03:32.946Z,100968.53
2022-12-06T07:06:10.829Z,100986.47
2022-12-06T07:08:40.045Z,100986.69
2022-12-06T07:11:08.940Z,100980.81
2022-12-06T07:13:37.361Z,100979.19
2022-12-06T07:16:06.177Z,100985.41
2022-12-06T07:18:36.430Z,100993.13
2022-12-06T07:21:06.506Z,100989.44
2022-12-06T07:23:35.607Z,100988.66
2022-12-06T07:26:09.656Z,100997.50
2022-12-06T07:28:40.888Z,100989.34
2022-12-06T07:31:20.443Z,100996.63
2022-12-06T07:33:48.978Z,101000.09
2022-12-06T07:36:16.394Z,100992.00
2022-12-06T07:38:47.512Z,100994.97
2022-12-06T07:41:33.958Z,100998.84
2022-12-06T07:44:20.756Z,100994.94
2022-12-06T07:46:48.921Z,100996.06
2022-12-06T07:49:18.576Z,100995.81
2022-12-06T07:51:48.022Z,100992.78
2022-12-06T07:54:16.168Z,101001.56
2022-12-06T07:56:44.505Z,101002.28
2022-12-06T07:59:12.299Z,101001.16
2022-12-06T08:01:40.125Z,101003.28
2022-12-06T08:04:08.205Z,101005.41
2022-12-06T08:06:35.988Z,101005.72
2022-12-06T08:09:04.247Z,101005.63
2022-12-06T08:11:32.979Z,101009.69
2022-12-06T08:14:00.255Z,101014.06
2022-12-06T08:16:27.750Z,101015.09
2022-12-06T08:18:55.601Z,101019.09
2022-12-06T08:21:23.039Z,101019.34
2022-12-06T08:23:50.441Z,101024.72
2022-12-06T08:26:18.816Z,101025.22
2022-12-06T08:28:47.008Z,101025.78
2022-12-06T08:31:21.584Z,101022.78
2022-12-06T08:33:49.478Z,101020.88
2022-12-06T08:36:20.057Z,101021.69
2022-12-06T08:38:48.305Z,101028.94
2022-12-06T08:41:37.667Z,101028.94
2022-12-06T08:44:05.571Z,101040.84
2022-12-06T08:46:34.710Z,101033.25
2022-12-06T08:49:02.379Z,101024.69
2022-12-06T08:51:30.973Z,101029.50
2022-12-06T08:53:58.586Z,101029.88
2022-12-06T08:56:27.421Z,101031.09
2022-12-06T08:58:55.869Z,101026.75
2022-12-06T09:01:29.260Z,101032.13
2022-12-06T09:04:01.562Z,101028.97
2022-12-06T09:06:29.968Z,101032.53
2022-12-06T09:08:58.528Z,101030.06
2022-12-06T09:11:27.123Z,101034.53
2022-12-06T09:13:54.509Z,101039.69
2022-12-06T09:16:24.355Z,101044.00
2022-12-06T09:18:52.390Z,101049.69
2022-12-06T09:21:24.824Z,101055.56
2022-12-06T09:23:55.848Z,101049.91
2022-12-06T09:26:23.666Z,101059.13
2022-12-06T09:28:53.638Z,101055.16
2022-12-06T09:31:21.198Z,101048.44
2022-12-06T09:33:48.648Z,101055.06
2022-12-06T09:36:22.125Z,101052.50
2022-12-06T09:38:55.964Z,101040.00
2022-12-06T09:41:47.541Z,101046.09
2022-12-06T09:44:48.254Z,101053.66
2022-12-06T09:47:15.559Z,101049.81
2022-12-06T09:50:12.486Z,101037.88
2022-12-06T09:52:50.170Z,101040.78
2022-12-06T09:55:23.501Z,101038.78
2022-12-06T09:58:10.876Z,101037.63
2022-12-06T10:00:48.540Z,101032.59
2022-12-06T10:03:45.041Z,101034.06
2022-12-06T10:06:18.661Z,101031.13
2022-12-06T10:09:25.397Z,101022.78
2022-12-06T10:12:14.127Z,101020.75
2022-12-06T10:15:15.032Z,101022.72
2022-12-06T10:18:03.782Z,101015.84
2022-12-06T10:20:52.758Z,101014.13
2022-12-06T10:23:45.929Z,101011.28
2022-12-06T10:26:17.812Z,101011.63
2022-12-06T10:28:50.197Z,101010.31
2022-12-06T10:31:23.887Z,101004.00
2022-12-06T10:33:51.257Z,100997.97
2022-12-06T10:36:44.666Z,100995.75
2022-12-06T10:39:20.193Z,100997.56
2022-12-06T10:42:19.604Z,100993.59
2022-12-06T10:44:53.728Z,100983.78
2022-12-06T10:47:38.656Z,100987.38
2022-12-06T10:50:30.711Z,100992.38
2022-12-06T10:53:03.629Z,100984.81
2022-12-06T10:55:45.729Z,100980.69
2022-12-06T10:58:15.965Z,100978.19
2022-12-06T11:00:52.708Z,100979.38
2022-12-06T11:03:41.393Z,100976.94
2022-12-06T11:06:15.759Z,100977.56
2022-12-06T11:08:52.075Z,100987.34
2022-12-06T11:11:30.777Z,100984.44
2022-12-06T11:14:21.012Z,100985.50
2022-12-06T11:17:05.055Z,100976.84
2022-12-06T11:19:38.268Z,100978.91
2022-12-06T11:22:13.420Z,100976.66
2022-12-06T11:25:00.715Z,100964.59
2022-12-06T11:27:35.546Z,100969.41
2022-12-06T11:30:13.686Z,100961.34
2022-12-06T11:32:46.739Z,100954.00
2022-12-06T11:35:18.512Z,100958.16
2022-12-06T11:37:53.555Z,100944.75
2022-12-06T11:40:30.546Z,100956.44
2022-12-06T11:43:01.973Z,100947.72
2022-12-06T11:45:34.274Z,100951.22
2022-12-06T11:48:11.502Z,100951.38
2022-12-06T11:50:38.891Z,100942.41
2022-12-06T11:53:13.659Z,100930.28
2022-12-06T11:55:46.665Z,100940.41
2022-12-06T11:58:26.775Z,100934.25
2022-12-06T12:01:06.465Z,100932.34
2022-12-06T12:03:39.490Z,100929.72
2022-12-06T12:06:07.946Z,100934.13
2022-12-06T12:08:37.176Z,100919.13
2022-12-06T12:11:05.080Z,100924.38
2022-12-06T12:13:44.659Z,100931.03
2022-12-06T12:16:23.160Z,100926.72
2022-12-06T12:18:55.235Z,100920.88
2022-12-06T12:21:33.260Z,100920.50
2022-12-06T12:24:01.426Z,100911.56
2022-12-06T12:26:41.118Z,100912.56
2022-12-06T12:29:08.400Z,100911.22
2022-12-06T12:32:06.168Z,100908.16
2022-12-06T12:34:33.543Z,100902.59
2022-12-06T12:37:03.966Z,100902.47
2022-12-06T12:39:41.154Z,100899.47
2022-12-06T12:42:28.477Z,100892.44
2022-12-06T12:45:00.222Z,100887.00
2022-12-06T12:47:27.701Z,100887.63
2022-12-06T12:50:04.302Z,100886.69
2022-12-06T12:52:40.636Z,100881.97
2022-12-06T12:55:30.536Z,100878.59
2022-12-06T12:58:00.539Z,100876.19
2022-12-06T13:00:27.913Z,100871.75
2022-12-06T13:03:49.016Z,100861.03
2022-12-06T13:06:06.125Z,100859.91
2022-12-06T13:08:39.030Z,100855.72
2022-12-06T13:11:08.928Z,100858.59
2022-12-06T13:13:49.744Z,100854.25
2022-12-06T13:16:23.340Z,100857.78
2022-12-06T13:18:55.326Z,100850.84
2022-12-06T13:21:27.799Z,100853.56
2022-12-06T13:24:10.029Z,100849.97
2022-12-06T13:26:54.479Z,100846.16
2022-12-06T13:29:42.227Z,100854.81
2022-12-06T13:32:16.840Z,100846.00
2022-12-06T13:34:52.479Z,100853.06
2022-12-06T13:37:43.626Z,100859.59
2022-12-06T13:40:32.712Z,100852.47
2022-12-06T13:43:01.519Z,100842.94
2022-12-06T13:45:45.350Z,100849.97
2022-12-06T13:48:24.807Z,100848.84
2022-12-06T13:50:57.829Z,100845.94
2022-12-06T13:53:27.165Z,100850.88
2022-12-06T13:56:28.777Z,100847.47
2022-12-06T13:58:57.987Z,100849.56
2022-12-06T14:01:40.956Z,100846.47
2022-12-06T14:07:00.180Z,100844.41
2022-12-06T14:09:37.373Z,100840.69
2022-12-06T14:12:25.816Z,100853.88
2022-12-06T14:15:01.387Z,100845.56
2022-12-06T14:18:01.651Z,100850.16
2022-12-06T14:20:28.950Z,100853.06
2022-12-06T14:22:56.746Z,100852.63
2022-12-06T14:25:28.398Z,100853.53
2022-12-06T14:28:06.107Z,100852.88
2022-12-06T14:30:34.267Z,100857.56
2022-12-06T14:33:01.820Z,100860.00
2022-12-06T14:35:36.187Z,100861.16
2022-12-06T14:38:17.861Z,100854.38
2022-12-06T14:41:04.048Z,100863.06
2022-12-06T14:43:33.215Z,100858.25
2022-12-06T14:46:03.541Z,100857.47
2022-12-06T14:48:52.621Z,100857.97
2022-12-06T14:51:25.532Z,100850.88
2022-12-06T14:53:53.511Z,100855.91
2022-12-06T14:56:35.363Z,100849.06
2022-12-06T14:59:10.496Z,100846.44
2022-12-06T15:01:50.659Z,100856.81
2022-12-06T15:04:28.084Z,100858.75
2022-12-06T15:06:56.923Z,100847.19
2022-12-06T15:09:25.056Z,100847.47
2022-12-06T15:12:11.305Z,100847.38
2022-12-06T15:14:49.592Z,100847.75
2022-12-06T15:17:19.627Z,100853.84
2022-12-06T15:19:52.668Z,100852.81
2022-12-06T15:22:26.697Z,100843.97
2022-12-06T15:24:59.884Z,100851.28
2022-12-06T15:27:28.046Z,100850.56
2022-12-06T15:29:55.609Z,100846.34
2022-12-06T15:32:24.808Z,100859.34
2022-12-06T15:34:52.121Z,100862.44
2022-12-06T15:40:08.566Z,100853.69
2022-12-06T15:42:36.101Z,100859.97
2022-12-06T15:45:04.120Z,100853.66
2022-12-06T15:47:31.717Z,100859.41
2022-12-06T15:49:59.026Z,100848.50
2022-12-06T15:52:27.465Z,100859.53
2022-12-06T15:54:54.781Z,100866.25
2022-12-06T15:57:22.012Z,100864.69
2022-12-06T15:59:49.318Z,100864.03
2022-12-06T16:02:18.281Z,100860.56
2022-12-06T16:04:48.353Z,100858.09
2022-12-06T16:07:18.645Z,100864.59
2022-12-06T16:09:47.488Z,100859.03
2022-12-06T16:12:17.469Z,100857.75
2022-12-06T16:14:44.804Z,100861.56
2022-12-06T16:17:12.109Z,100864.97
2022-12-06T16:19:58.834Z,100858.09
2022-12-06T16:22:45.840Z,100860.00
2022-12-06T16:25:15.217Z,100858.09
2022-12-06T16:27:42.503Z,100857.31
2022-12-06T16:30:10.289Z,100853.25
2022-12-06T16:32:37.621Z,100855.66
2022-12-06T16:35:05.081Z,100858.41
2022-12-06T16:37:32.427Z,100859.41
2022-12-06T16:39:59.693Z,100850.41
2022-12-06T16:42:26.949Z,100855.47
2022-12-06T16:44:54.234Z,100862.47
2022-12-06T16:49:49.090Z,100856.16
2022-12-06T16:52:17.153Z,100859.03
2022-12-06T16:54:44.898Z,100859.84
2022-12-06T16:57:13.145Z,100854.63
2022-12-06T16:59:42.275Z,100851.13
2022-12-06T17:02:31.760Z,100854.56
2022-12-06T17:05:01.869Z,100851.31
2022-12-06T17:07:29.699Z,100856.94
2022-12-06T17:09:57.044Z,100854.25
2022-12-06T17:12:24.463Z,100852.69
2022-12-06T17:14:51.905Z,100853.94
2022-12-06T17:17:23.012Z,100850.88
2022-12-06T17:19:50.694Z,100845.47
2022-12-06T17:22:19.342Z,100848.66
2022-12-06T17:24:46.838Z,100844.34
2022-12-06T17:27:17.602Z,100842.91
2022-12-06T17:29:45.479Z,100846.53
2022-12-06T17:32:13.356Z,100850.91
2022-12-06T17:34:40.728Z,100854.41
2022-12-06T17:37:08.122Z,100842.53
2022-12-06T17:39:35.684Z,100848.84
2022-12-06T17:42:22.203Z,100850.16
2022-12-06T17:44:52.661Z,100853.91
2022-12-06T17:47:20.190Z,100854.94
2022-12-06T17:49:47.478Z,100857.38
2022-12-06T17:52:15.113Z,100861.38
2022-12-06T17:54:42.630Z,100860.31
2022-12-06T17:57:17.526Z,100864.63
2022-12-06T17:59:47.013Z,100869.19
2022-12-06T18:02:18.535Z,100861.25
2022-12-06T18:04:47.519Z,100856.38
2022-12-06T18:07:16.626Z,100865.00
2022-12-06T18:09:45.035Z,100864.44
2022-12-06T18:12:14.478Z,100864.22
2022-12-06T18:14:45.482Z,100866.72
2022-12-06T18:17:13.210Z,100861.38
2022-12-06T18:19:40.939Z,100861.06
2022-12-06T18:22:08.429Z,100866.97
2022-12-06T18:24:36.418Z,100854.81
2022-12-06T18:27:05.689Z,100849.81
2022-12-06T18:29:34.106Z,100850.09
2022-12-06T18:32:01.825Z,100849.31
2022-12-06T18:34:29.370Z,100839.41
2022-12-06T18:36:59.482Z,100846.00
2022-12-06T18:39:28.018Z,100863.66
2022-12-06T18:41:55.481Z,100864.97
2022-12-06T18:44:23.416Z,100857.25
2022-12-06T18:46:51.254Z,100864.50
2022-12-06T18:49:18.764Z,100867.75
2022-12-06T18:51:46.128Z,100864.47
2022-12-06T18:54:14.185Z,100869.53
2022-12-06T18:56:42.914Z,100874.13
2022-12-06T18:59:11.631Z,100847.97
2022-12-06T19:01:40.588Z,100854.66
2022-12-06T19:04:09.830Z,100870.06
2022-12-06T19:06:38.577Z,100867.16
2022-12-06T19:09:11.947Z,100866.63
2022-12-06T19:11:41.949Z,100871.22
2022-12-06T19:14:10.080Z,100871.75
2022-12-06T19:16:43.446Z,100878.75
2022-12-06T19:19:16.556Z,100880.13
2022-12-06T19:21:46.645Z,100888.25
2022-12-06T19:24:17.086Z,100885.06
2022-12-06T19:26:44.849Z,100874.47
2022-12-06T19:29:13.753Z,100875.16
2022-12-06T19:31:42.189Z,100867.34
2022-12-06T19:34:18.318Z,100874.84
2022-12-06T19:36:45.819Z,100858.91
2022-12-06T19:39:14.285Z,100867.63
2022-12-06T19:42:00.688Z,100861.09
2022-12-06T19:44:28.848Z,100867.97
2022-12-06T19:46:56.884Z,100865.66
2022-12-06T19:49:26.674Z,100865.66
2022-12-06T19:51:54.323Z,100869.66
2022-12-06T19:54:30.361Z,100865.88
2022-12-06T19:57:01.346Z,100861.97
2022-12-06T19:59:34.214Z,100860.53
2022-12-06T20:02:03.061Z,100862.41
2022-12-06T20:04:33.592Z,100865.66
2022-12-06T20:07:01.284Z,100876.72
2022-12-06T20:09:31.097Z,100866.81
2022-12-06T20:12:03.731Z,100865.72
2022-12-06T20:14:39.427Z,100869.72
2022-12-06T20:17:11.593Z,100858.44
2022-12-06T20:19:39.732Z,100856.19
2022-12-06T20:22:07.078Z,100853.28
2022-12-06T20:24:34.415Z,100865.34
2022-12-06T20:27:01.993Z,100858.09
2022-12-06T20:29:30.187Z,100848.69
2022-12-06T20:31:59.995Z,100847.66
2022-12-06T20:34:29.683Z,100848.72
2022-12-06T20:36:57.142Z,100853.22
2022-12-06T20:39:27.000Z,100835.56
2022-12-06T20:41:54.497Z,100842.97
2022-12-06T20:44:22.324Z,100837.31
2022-12-06T20:46:52.619Z,100818.88
2022-12-06T20:49:19.977Z,100825.75
2022-12-06T20:51:52.901Z,100824.34
2022-12-06T20:54:24.366Z,100821.03
2022-12-06T20:56:53.181Z,100824.19
2022-12-06T20:59:21.264Z,100816.66
2022-12-06T21:01:49.458Z,100822.94
2022-12-06T21:04:17.574Z,100831.28
2022-12-06T21:06:45.081Z,100828.91
2022-12-06T21:09:12.502Z,100831.31
2022-12-06T21:11:39.988Z,100828.28
2022-12-06T21:14:07.444Z,100821.38
2022-12-06T21:16:38.087Z,100824.75
2022-12-06T21:19:17.945Z,100812.91
2022-12-06T21:21:48.703Z,100824.78
2022-12-06T21:24:19.953Z,100839.88
2022-12-06T21:26:48.176Z,100833.63
2022-12-06T21:29:17.994Z,100840.94
2022-12-06T21:31:45.680Z,100836.50
2022-12-06T21:34:14.416Z,100836.69
2022-12-06T21:36:45.372Z,100817.53
2022-12-06T21:39:13.718Z,100834.59
2022-12-06T21:41:41.543Z,100829.72
2022-12-06T21:44:08.886Z,100831.81
2022-12-06T21:46:36.380Z,100834.25
2022-12-06T21:49:03.794Z,100834.25
2022-12-06T21:51:31.906Z,100839.94
2022-12-06T21:53:59.527Z,100837.81
2022-12-06T21:56:29.685Z,100836.44
2022-12-06T21:58:59.856Z,100848.91
2022-12-06T22:01:29.342Z,100840.53
2022-12-06T22:03:59.827Z,100847.84
2022-12-06T22:06:27.246Z,100828.16
2022-12-06T22:09:00.392Z,100821.38
2022-12-06T22:11:28.921Z,100827.03
2022-12-06T22:14:00.644Z,100831.13
2022-12-06T22:16:28.724Z,100834.94
2022-12-06T22:18:56.622Z,100820.25
2022-12-06T22:21:26.533Z,100830.25
2022-12-06T22:23:55.672Z,100839.13
2022-12-06T22:26:23.804Z,100843.16
2022-12-06T22:28:51.471Z,100839.31
2022-12-06T22:31:19.943Z,100847.13
2022-12-06T22:33:48.574Z,100843.41
2022-12-06T22:36:16.936Z,100840.47
2022-12-06T22:38:44.588Z,100835.34
2022-12-06T22:41:11.944Z,100833.69
2022-12-06T22:43:39.272Z,100833.44
2022-12-06T22:46:15.228Z,100836.94
2022-12-06T22:48:43.725Z,100832.63
2022-12-06T22:51:19.605Z,100840.44
2022-12-06T22:53:52.124Z,100837.47
2022-12-06T22:56:19.680Z,100829.69
2022-12-06T22:58:47.117Z,100834.25
2022-12-06T23:01:19.935Z,100841.28
2022-12-06T23:03:49.396Z,100848.91
2022-12-06T23:06:19.250Z,100849.41
2022-12-06T23:08:46.700Z,100840.88
2022-12-06T23:11:20.365Z,100849.25
2022-12-06T23:13:47.988Z,100846.84
2022-12-06T23:16:18.048Z,100843.63
2022-12-06T23:18:46.405Z,100843.09
2022-12-06T23:21:13.694Z,100826.63
2022-12-06T23:23:44.844Z,100835.50
2022-12-06T23:26:15.777Z,100827.72
2022-12-06T23:28:43.717Z,100813.31
2022-12-06T23:31:25.789Z,100822.03
2022-12-06T23:33:59.252Z,100819.03
2022-12-06T23:36:29.611Z,100811.47
2022-12-06T23:38:57.038Z,100816.88
2022-12-06T23:41:26.993Z,100798.84
2022-12-06T23:43:56.936Z,100803.16
2022-12-06T23:46:35.645Z,100791.78
2022-12-06T23:49:04.669Z,100786.91
2022-12-06T23:51:37.160Z,100780.72
2022-12-06T23:54:07.439Z,100781.59
2022-12-06T23:56:37.973Z,100785.91
2022-12-06T23:59:07.053Z,100786.41
